LFKC/CLY METAR and TAF weather

Enter ICAO airport designator
Station Type Date Time Source
LFKC METAR 2019/06/26 18:00 UTC NOAA

LFKC 261800Z AUTO 31006KT 250V360 CAVOK 31/16 Q1018 NOSIG


Station Type Date Time Source
LFKC Decoded METAR 2019/06/26 18:00 UTC NOAA

Calvi, France (LFKC) 42-32N 008-48E 58M
Jun 26, 2019 - 02:00 PM EDT / 2019.06.26 1800 UTC
Wind: from the NW (310 degrees) at 7 MPH (6 KT) (direction variable):0
Visibility: greater than 7 mile(s):0
Temperature: 87 F (31 C)
Dew Point: 60 F (16 C)
Relative Humidity: 40%
Pressure (altimeter): 30.06 in. Hg (1018 hPa)
ob: LFKC 261800Z AUTO 31006KT 250V360 CAVOK 31/16 Q1018 NOSIG
cycle: 18

Station Type Date Time Source
LFKC TAF 2019/06/26 15:46 UTC NOAA

TAF LFKC 261400Z 2615/2715 36006KT CAVOK TX35/2712Z TN21/2703Z
BECMG 2617/2620 20004KT
BECMG 2707/2710 36010KT

Example: see airport list